Time;durP1;ratioP1;P1;durP2;ratioP2;P2;SDS_P1;SDS_P2;PMS_P1;PMS_P2;Temp;Humidity;BMP_temperature;BMP_pressure;BME280_temperature;BME280_humidity;BME280_pressure;Samples;Min_cycle;Max_cycle;Signal;HPM_P1;HPM_P2
2022/12/02 00:02:19;;;;;;;;;18.67;13.00;;;;;-0.79;82.45;99326.75;4962274;28;101948;-73
2022/12/02 00:04:53;;;;;;;;;14.67;13.33;;;;;-0.86;82.31;99309.59;4965915;28;101922;-73
2022/12/02 00:07:20;;;;;;;;;15.33;11.67;;;;;-0.84;82.93;99323.59;4962098;28;102063;-73
2022/12/02 00:09:47;;;;;;;;;9.33;8.33;;;;;-0.78;82.26;99331.97;4963885;28;103494;-73
2022/12/02 00:12:21;;;;;;;;;13.00;12.00;;;;;-0.80;82.43;99330.38;4967640;28;101575;-72
2022/12/02 00:14:58;;;;;;;;;12.00;11.00;;;;;-0.79;83.55;99326.75;4963597;28;101778;-72
2022/12/02 00:17:25;;;;;;;;;11.67;9.00;;;;;-0.82;82.65;99322.53;4966738;28;101718;-73
2022/12/02 00:19:53;;;;;;;;;14.33;11.67;;;;;-0.79;82.12;99317.00;4963986;28;103533;-73
2022/12/02 00:22:20;;;;;;;;;12.00;11.67;;;;;-0.92;83.08;99309.09;4965591;28;101821;-73
2022/12/02 00:24:47;;;;;;;;;13.33;7.33;;;;;-0.76;82.63;99322.06;4958777;28;103139;-73
2022/12/02 00:27:15;;;;;;;;;12.33;9.67;;;;;-0.80;83.26;99325.06;4959476;28;102784;-73
2022/12/02 00:29:41;;;;;;;;;12.00;9.00;;;;;-0.85;83.00;99322.75;4961767;28;103060;-72
2022/12/02 00:32:08;;;;;;;;;13.67;10.33;;;;;-0.81;83.40;99328.69;4963431;28;102093;-73
2022/12/02 00:34:35;;;;;;;;;15.00;11.00;;;;;-0.91;82.99;99309.94;4968683;28;102321;-73
2022/12/02 00:37:02;;;;;;;;;13.67;11.00;;;;;-0.80;83.61;99322.41;4968261;28;101913;-72
2022/12/02 00:39:29;;;;;;;;;10.33;8.00;;;;;-0.81;82.54;99312.78;4966311;28;103587;-73
2022/12/02 00:41:56;;;;;;;;;15.00;12.67;;;;;-0.85;83.53;99305.97;4956416;28;101929;-72
2022/12/02 00:47:08;;;;;;;;;16.00;11.67;;;;;-0.84;83.86;99312.97;4961876;28;101860;-72
2022/12/02 00:49:35;;;;;;;;;16.00;15.33;;;;;-0.90;83.90;99303.66;4965407;28;107971;-73
2022/12/02 00:52:02;;;;;;;;;18.67;13.00;;;;;-0.99;84.47;99297.19;4960243;28;101830;-73
2022/12/02 00:54:29;;;;;;;;;14.33;11.00;;;;;-0.98;84.15;99304.22;4960161;28;102371;-73
2022/12/02 00:56:56;;;;;;;;;15.33;11.00;;;;;-0.97;84.40;99303.25;4962060;28;101793;-73
2022/12/02 00:59:23;;;;;;;;;16.67;14.33;;;;;-1.13;84.04;99278.81;4957934;28;103383;-73
2022/12/02 01:01:50;;;;;;;;;19.00;14.33;;;;;-1.02;84.63;99308.06;4964887;28;101780;-73
2022/12/02 01:04:17;;;;;;;;;19.67;13.67;;;;;-1.02;84.18;99300.09;4959478;28;102372;-73
2022/12/02 01:06:44;;;;;;;;;19.33;15.00;;;;;-1.01;84.36;99304.44;4964166;28;103411;-72
2022/12/02 01:09:11;;;;;;;;;12.67;11.67;;;;;-1.07;83.46;99288.97;4962819;28;103360;-73
2022/12/02 01:11:38;;;;;;;;;16.67;9.00;;;;;-1.04;84.06;99291.41;4961008;28;102121;-73
2022/12/02 01:14:05;;;;;;;;;12.00;11.00;;;;;-1.08;84.61;99291.75;4966943;28;103015;-73
2022/12/02 01:16:32;;;;;;;;;11.33;9.00;;;;;-0.99;84.37;99289.25;4965398;28;101793;-73
2022/12/02 01:18:59;;;;;;;;;19.33;11.00;;;;;-0.98;83.58;99293.59;4964895;28;103490;-73
2022/12/02 01:21:26;;;;;;;;;13.00;9.67;;;;;-0.96;83.11;99283.72;4941909;28;102125;-73
2022/12/02 01:23:53;;;;;;;;;8.00;5.67;;;;;-0.97;83.74;99290.00;4966375;28;101572;-72
2022/12/02 01:26:20;;;;;;;;;8.67;6.33;;;;;-0.95;83.05;99282.78;4966799;28;101859;-73
2022/12/02 01:28:47;;;;;;;;;8.33;5.00;;;;;-0.93;82.43;99294.09;4963788;28;103453;-73
2022/12/02 01:31:14;;;;;;;;;11.00;8.00;;;;;-0.92;84.96;99292.31;4962563;28;101774;-73
2022/12/02 01:33:41;;;;;;;;;13.33;7.00;;;;;-0.99;82.85;99289.25;4972071;28;101804;-72
2022/12/02 01:36:08;;;;;;;;;9.67;5.00;;;;;-0.87;83.36;99299.94;4973311;28;102377;-73
2022/12/02 01:38:35;;;;;;;;;8.67;8.00;;;;;-0.97;83.36;99295.28;4967831;28;107922;-72
2022/12/02 01:41:03;;;;;;;;;6.00;4.33;;;;;-0.92;83.59;99285.19;4967504;28;101860;-73
2022/12/02 01:43:31;;;;;;;;;9.67;6.33;;;;;-0.90;82.78;99293.88;4968677;28;101696;-73
2022/12/02 01:45:58;;;;;;;;;8.00;7.00;;;;;-0.95;83.45;99288.09;4962752;28;103128;-73
2022/12/02 01:48:25;;;;;;;;;4.00;4.00;;;;;-0.99;83.67;99286.59;4965757;28;103349;-73
2022/12/02 01:50:52;;;;;;;;;8.00;7.33;;;;;-1.03;83.64;99293.06;4949009;28;102643;-74
2022/12/02 01:53:20;;;;;;;;;12.00;9.67;;;;;-1.20;82.99;99274.88;4966191;28;103094;-72
2022/12/02 01:55:47;;;;;;;;;13.67;8.00;;;;;-1.19;83.96;99281.91;4971804;28;101659;-72
2022/12/02 01:58:17;;;;;;;;;8.67;7.67;;;;;-1.23;83.96;99272.47;4965954;28;103578;-72
2022/12/02 02:00:44;;;;;;;;;9.00;5.00;;;;;-1.16;83.87;99292.28;4970922;28;101551;-72
2022/12/02 02:03:11;;;;;;;;;2.00;2.00;;;;;-1.11;83.29;99286.63;4960268;28;103078;-71
2022/12/02 02:05:38;;;;;;;;;5.00;4.67;;;;;-1.09;84.25;99287.38;4960484;28;101505;-72
2022/12/02 02:08:13;;;;;;;;;8.33;7.00;;;;;-1.06;83.31;99293.31;4966532;28;108144;-72
2022/12/02 02:10:56;;;;;;;;;7.00;5.67;;;;;-1.09;83.43;99282.94;4966305;28;101864;-73
2022/12/02 02:13:42;;;;;;;;;8.00;7.33;;;;;-1.07;84.02;99281.00;4958704;28;101579;-72
2022/12/02 02:16:30;;;;;;;;;8.00;7.00;;;;;-1.20;83.95;99258.97;4964573;28;102222;-72
2022/12/02 02:19:22;;;;;;;;;8.67;7.00;;;;;-1.08;84.46;99279.28;4963596;28;107727;-70
2022/12/02 02:22:21;;;;;;;;;15.00;8.00;;;;;-1.09;84.52;99288.25;4958009;28;101995;-72
2022/12/02 02:25:12;;;;;;;;;11.00;7.00;;;;;-1.12;84.28;99287.59;4952331;28;101762;-72
2022/12/02 02:27:59;;;;;;;;;14.00;12.00;;;;;-1.23;85.12;99282.22;4958055;28;101766;-72
2022/12/02 02:30:28;;;;;;;;;15.00;10.33;;;;;-1.32;86.46;99275.78;4957668;28;103334;-72
2022/12/02 02:32:56;;;;;;;;;18.00;14.33;;;;;-1.42;86.57;99259.66;4971644;28;101883;-72
2022/12/02 02:35:23;;;;;;;;;12.00;10.33;;;;;-1.24;86.59;99284.03;4962816;28;101681;-72
2022/12/02 02:37:53;;;;;;;;;11.33;9.00;;;;;-1.24;85.86;99284.03;4971426;28;101660;-72
2022/12/02 02:40:23;;;;;;;;;14.00;9.00;;;;;-1.28;85.87;99271.09;4968774;28;103352;-72
2022/12/02 02:42:52;;;;;;;;;11.00;8.00;;;;;-1.28;86.12;99263.97;4963304;28;104171;-72
2022/12/02 02:45:22;;;;;;;;;12.00;11.00;;;;;-1.21;85.87;99278.50;4962961;28;101896;-72
2022/12/02 02:47:50;;;;;;;;;12.00;6.33;;;;;-1.19;85.40;99281.91;4967853;28;101765;-72
2022/12/02 02:50:17;;;;;;;;;12.00;7.67;;;;;-1.21;86.09;99273.19;4965238;28;103350;-72
2022/12/02 02:52:45;;;;;;;;;17.67;11.33;;;;;-1.28;86.24;99265.78;4965381;28;101979;-72
2022/12/02 02:55:23;;;;;;;;;12.67;8.67;;;;;-1.25;86.28;99277.03;4967498;28;101843;-71
2022/12/02 02:57:51;;;;;;;;;14.67;9.00;;;;;-1.17;85.94;99272.00;4966524;28;101892;-72
2022/12/02 03:00:20;;;;;;;;;15.67;8.00;;;;;-1.33;85.96;99273.22;4963746;28;103268;-72
2022/12/02 03:02:54;;;;;;;;;14.00;13.33;;;;;-1.52;85.85;99249.81;4962893;28;101971;-74
2022/12/02 03:05:22;;;;;;;;;12.67;11.00;;;;;-1.48;85.49;99259.25;4965884;28;101709;-74
2022/12/02 03:07:50;;;;;;;;;15.33;8.00;;;;;-1.36;85.66;99269.00;4967063;28;101765;-74
2022/12/02 03:10:18;;;;;;;;;14.00;12.00;;;;;-1.50;86.30;99269.13;4965276;28;103544;-74
2022/12/02 03:12:46;;;;;;;;;11.67;7.33;;;;;-1.48;86.27;99277.81;4964385;28;101958;-72
2022/12/02 03:15:24;;;;;;;;;10.67;8.67;;;;;-1.50;84.95;99271.78;4968561;28;101616;-71
2022/12/02 03:17:52;;;;;;;;;8.33;8.00;;;;;-1.53;85.52;99267.53;4966270;28;101856;-72
2022/12/02 03:20:21;;;;;;;;;7.00;6.00;;;;;-1.52;85.29;99269.22;4968192;28;103312;-72
2022/12/02 03:22:49;;;;;;;;;10.67;7.00;;;;;-1.54;86.03;99275.63;4962548;28;101945;-73
2022/12/02 03:25:17;;;;;;;;;11.00;9.33;;;;;-1.61;86.14;99274.34;4965556;28;103317;-73
2022/12/02 03:27:44;;;;;;;;;8.00;7.67;;;;;-1.76;85.86;99257.72;4966592;28;103031;-72
2022/12/02 03:30:11;;;;;;;;;12.00;7.00;;;;;-1.59;85.48;99267.13;4965908;28;103982;-71
2022/12/02 03:32:44;;;;;;;;;12.67;9.67;;;;;-1.69;84.56;99268.72;4958100;28;107209;-72
2022/12/02 03:35:11;;;;;;;;;9.00;7.33;;;;;-1.67;85.80;99264.19;4966526;28;101581;-72
2022/12/02 03:37:38;;;;;;;;;3.67;1.00;;;;;-1.62;84.31;99256.75;4960669;28;101982;-72
2022/12/02 03:40:07;;;;;;;;;8.33;6.33;;;;;-1.67;85.74;99254.44;4963469;28;104520;-72
2022/12/02 03:42:34;;;;;;;;;9.00;8.00;;;;;-1.70;85.01;99259.06;4966870;28;102791;-72
2022/12/02 03:45:02;;;;;;;;;9.33;4.67;;;;;-1.72;85.10;99240.66;4966183;28;102396;-72
2022/12/02 03:47:29;;;;;;;;;8.67;8.00;;;;;-1.68;84.69;99244.78;4963759;28;101578;-72
2022/12/02 03:49:57;;;;;;;;;10.33;8.67;;;;;-1.70;85.78;99243.19;4964762;28;106925;-72
2022/12/02 03:52:24;;;;;;;;;7.33;7.33;;;;;-1.64;85.22;99242.75;4963095;28;102201;-72
2022/12/02 03:54:51;;;;;;;;;11.67;7.67;;;;;-1.59;86.05;99251.22;4963996;28;102569;-72
2022/12/02 03:57:21;;;;;;;;;7.33;6.00;;;;;-1.58;85.49;99242.31;4959893;28;103958;-72
2022/12/02 03:59:48;;;;;;;;;9.67;5.00;;;;;-1.54;85.45;99244.66;4963389;28;103404;-72
2022/12/02 04:02:16;;;;;;;;;6.33;5.67;;;;;-1.65;85.16;99233.94;4962811;28;101942;-72
2022/12/02 04:04:42;;;;;;;;;8.00;8.00;;;;;-1.60;84.34;99254.81;4966634;28;102575;-72
2022/12/02 04:07:09;;;;;;;;;12.33;7.67;;;;;-1.71;85.66;99237.03;4966100;28;101850;-72
2022/12/02 04:09:36;;;;;;;;;11.00;7.00;;;;;-1.58;85.41;99242.31;4963791;28;107925;-72
2022/12/02 04:12:04;;;;;;;;;7.67;6.33;;;;;-1.57;84.73;99249.28;4966823;28;101849;-72
2022/12/02 04:14:30;;;;;;;;;5.00;4.00;;;;;-1.56;84.34;99248.34;4947443;28;101876;-72
2022/12/02 04:16:57;;;;;;;;;17.00;14.00;;;;;-1.68;85.17;99257.19;4968038;28;101824;-72
2022/12/02 04:19:29;;;;;;;;;11.33;8.00;;;;;-1.72;85.24;99240.66;4964854;28;103466;-72
2022/12/02 04:21:56;;;;;;;;;10.00;7.00;;;;;-1.62;85.86;99248.81;4966749;28;102227;-72
2022/12/02 04:24:23;;;;;;;;;10.67;8.00;;;;;-1.59;84.54;99243.28;4966310;28;101634;-72
2022/12/02 04:26:50;;;;;;;;;11.00;8.00;;;;;-1.58;84.41;99261.72;4961741;28;103717;-72
2022/12/02 04:29:17;;;;;;;;;11.00;7.00;;;;;-1.60;85.05;99255.69;4964807;28;103324;-72
2022/12/02 04:31:44;;;;;;;;;8.00;7.00;;;;;-1.75;84.08;99246.16;4965265;28;101927;-72
2022/12/02 04:34:11;;;;;;;;;6.33;3.33;;;;;-1.64;84.96;99250.69;4970190;28;101763;-72
2022/12/02 04:36:38;;;;;;;;;8.00;5.00;;;;;-1.61;84.10;99250.47;4968628;28;101868;-71
2022/12/02 04:39:05;;;;;;;;;5.00;5.00;;;;;-1.58;85.09;99245.81;4962164;28;103166;-71
2022/12/02 04:41:32;;;;;;;;;5.00;4.33;;;;;-1.67;83.71;99227.06;4965131;28;102866;-72
2022/12/02 04:43:59;;;;;;;;;5.67;5.33;;;;;-1.58;85.49;99258.22;4963111;28;101577;-72
2022/12/02 04:46:26;;;;;;;;;4.33;4.33;;;;;-1.50;85.56;99242.63;4970445;28;101697;-72
2022/12/02 04:48:53;;;;;;;;;2.67;1.33;;;;;-1.42;84.29;99243.75;4967147;28;103378;-72
2022/12/02 04:51:19;;;;;;;;;3.67;2.00;;;;;-1.52;83.24;99234.75;4969116;28;102873;-72
2022/12/02 04:53:46;;;;;;;;;5.67;4.00;;;;;-1.53;83.15;99242.84;4969147;28;101899;-72
2022/12/02 04:56:14;;;;;;;;;8.33;4.00;;;;;-1.62;84.50;99240.84;4967196;28;101709;-72
2022/12/02 04:58:42;;;;;;;;;6.00;5.67;;;;;-1.65;84.22;99252.50;4942812;28;103798;-72
2022/12/02 05:01:08;;;;;;;;;8.00;5.67;;;;;-1.63;83.94;99239.16;4968626;28;102122;-72
2022/12/02 05:03:35;;;;;;;;;8.67;5.00;;;;;-1.99;83.57;99192.25;4966998;28;101671;-72
2022/12/02 05:06:03;;;;;;;;;7.33;5.00;;;;;-1.70;84.18;99233.41;4967542;28;103371;-72
2022/12/02 05:08:30;;;;;;;;;6.67;5.67;;;;;-1.72;83.67;99239.81;4965018;28;103339;-72
2022/12/02 05:10:56;;;;;;;;;8.00;7.00;;;;;-1.80;83.98;99232.38;4967539;28;101826;-71
2022/12/02 05:13:23;;;;;;;;;5.00;5.00;;;;;-1.68;84.52;99236.81;4962616;28;102211;-72
2022/12/02 05:15:50;;;;;;;;;5.67;4.33;;;;;-1.72;85.13;99235.34;4966196;28;102259;-72
2022/12/02 05:18:17;;;;;;;;;5.00;5.00;;;;;-1.88;83.67;99202.91;4964857;28;103732;-72
2022/12/02 05:20:44;;;;;;;;;5.67;4.67;;;;;-1.72;84.66;99237.16;4960084;28;101966;-71
2022/12/02 05:23:12;;;;;;;;;11.00;7.00;;;;;-1.70;84.65;99235.22;4962396;28;101712;-71
2022/12/02 05:25:39;;;;;;;;;5.67;4.33;;;;;-1.70;82.87;99219.31;4966753;28;101693;-75
2022/12/02 05:28:06;;;;;;;;;6.33;5.00;;;;;-1.75;83.53;99222.28;4965517;28;108156;-73
2022/12/02 05:30:33;;;;;;;;;7.00;4.00;;;;;-1.61;83.31;99232.78;4966993;28;101831;-72
2022/12/02 05:33:00;;;;;;;;;5.00;3.33;;;;;-1.54;82.55;99233.19;4963058;28;101723;-72
2022/12/02 05:35:27;;;;;;;;;6.33;4.00;;;;;-1.51;83.08;99235.63;4965919;28;101673;-72
2022/12/02 05:37:54;;;;;;;;;7.00;4.00;;;;;-1.52;84.06;99236.56;4963300;28;103289;-72
2022/12/02 05:40:28;;;;;;;;;5.67;5.00;;;;;-1.53;83.15;99233.06;4969715;28;102456;-72
2022/12/02 05:42:56;;;;;;;;;5.33;4.67;;;;;-1.56;84.10;99235.09;4961825;28;101821;-71
2022/12/02 05:45:23;;;;;;;;;11.33;8.00;;;;;-1.67;82.94;99233.22;4967534;28;102886;-72
2022/12/02 05:47:53;;;;;;;;;8.67;5.67;;;;;-1.59;84.06;99243.28;4956566;28;103363;-72
2022/12/02 05:50:21;;;;;;;;;11.00;7.00;;;;;-1.61;83.89;99250.47;4969551;28;101949;-72
2022/12/02 05:52:48;;;;;;;;;11.00;8.00;;;;;-1.64;84.05;99246.25;4966328;28;101857;-72
2022/12/02 05:55:19;;;;;;;;;3.33;2.00;;;;;-1.68;83.58;99251.88;4969077;28;101850;-72
2022/12/02 05:57:47;;;;;;;;;11.33;8.33;;;;;-1.67;84.07;99246.47;4966699;28;103288;-72
2022/12/02 06:00:19;;;;;;;;;6.33;4.67;;;;;-1.67;83.39;99250.94;4968678;28;102046;-72
2022/12/02 06:03:01;;;;;;;;;8.00;7.67;;;;;-1.61;83.90;99263.72;4960132;28;101647;-72
2022/12/02 06:05:37;;;;;;;;;7.00;5.00;;;;;-1.60;83.47;99258.34;4968168;28;101688;-72
2022/12/02 06:08:17;;;;;;;;;4.33;4.00;;;;;-1.54;83.33;99249.09;4958916;28;103480;-72
2022/12/02 06:10:50;;;;;;;;;3.33;3.33;;;;;-1.56;84.09;99241.25;4959004;28;101679;-72
2022/12/02 06:13:24;;;;;;;;;2.00;2.00;;;;;-1.49;82.86;99252.28;4962966;28;101903;-71
2022/12/02 06:15:52;;;;;;;;;10.67;7.67;;;;;-1.63;82.91;99247.09;4962113;28;101718;-72
2022/12/02 06:18:25;;;;;;;;;5.00;4.33;;;;;-1.65;83.99;99246.34;4962894;28;103393;-72
2022/12/02 06:20:56;;;;;;;;;4.00;2.67;;;;;-1.57;82.73;99250.16;4967189;28;101864;-72
2022/12/02 06:23:26;;;;;;;;;6.33;6.33;;;;;-1.64;82.98;99245.41;4966958;28;102647;-71
2022/12/02 06:25:54;;;;;;;;;4.00;3.33;;;;;-1.62;84.13;99243.50;4961704;28;101526;-72
2022/12/02 06:28:38;;;;;;;;;7.00;5.00;;;;;-1.57;84.55;99259.91;4963550;28;103357;-71
2022/12/02 06:31:13;;;;;;;;;5.00;4.00;;;;;-1.66;83.96;99237.53;4965869;28;101815;-73
2022/12/02 06:33:42;;;;;;;;;5.00;5.00;;;;;-1.65;83.59;99254.31;4971109;28;101879;-72
2022/12/02 06:36:14;;;;;;;;;5.00;4.33;;;;;-1.63;82.57;99249.75;4969018;28;101896;-71
2022/12/02 06:38:49;;;;;;;;;9.00;6.33;;;;;-1.65;82.29;99256.94;4966521;28;109280;-71
2022/12/02 06:41:21;;;;;;;;;5.00;5.00;;;;;-1.68;83.18;99246.56;4962537;28;101760;-71
2022/12/02 06:46:36;;;;;;;;;7.00;5.00;;;;;-1.68;83.81;99246.56;4966943;28;101734;-71
2022/12/02 06:49:20;;;;;;;;;5.67;5.67;;;;;-1.71;82.05;99244.16;4967790;28;103393;-71
2022/12/02 06:51:54;;;;;;;;;10.00;5.00;;;;;-1.65;82.96;99262.25;4961671;28;101705;-70
2022/12/02 06:54:26;;;;;;;;;5.00;5.00;;;;;-1.69;83.83;99260.78;4964207;28;101996;-71
2022/12/02 06:56:56;;;;;;;;;6.33;5.00;;;;;-1.65;84.26;99268.41;4966302;28;102067;-71
2022/12/02 06:59:24;;;;;;;;;7.67;6.33;;;;;-1.75;83.17;99259.41;4952755;28;102398;-71
2022/12/02 07:01:55;;;;;;;;;10.00;7.67;;;;;-1.73;81.75;99265.47;4942788;28;101747;-71
2022/12/02 07:04:44;;;;;;;;;8.33;7.00;;;;;-1.86;83.13;99254.88;4944478;28;102444;-71
2022/12/02 07:07:21;;;;;;;;;5.67;4.67;;;;;-1.72;83.68;99268.97;4936403;28;101610;-72
2022/12/02 07:09:56;;;;;;;;;5.67;4.00;;;;;-1.68;83.01;99279.25;4936038;28;107771;-70
2022/12/02 07:12:44;;;;;;;;;4.33;4.00;;;;;-1.66;84.23;99271.16;4939074;28;103061;-69
2022/12/02 07:15:27;;;;;;;;;5.67;4.67;;;;;-1.66;83.97;99271.16;4936322;28;101543;-69
2022/12/02 07:18:10;;;;;;;;;7.00;5.00;;;;;-1.68;83.09;99273.09;4922611;28;102049;-70
2022/12/02 07:20:38;;;;;;;;;7.00;2.67;;;;;-1.70;82.98;99264.38;4942838;28;103666;-70
2022/12/02 07:23:22;;;;;;;;;10.33;8.00;;;;;-1.67;83.08;99277.44;4942222;28;102018;-70
2022/12/02 07:25:52;;;;;;;;;4.67;3.33;;;;;-1.63;83.07;99274.47;4945640;28;101873;-69
2022/12/02 07:28:34;;;;;;;;;7.00;4.67;;;;;-1.63;84.48;99276.25;4942327;28;101646;-70
2022/12/02 07:31:07;;;;;;;;;8.00;4.33;;;;;-1.63;81.90;99277.13;4935930;28;103478;-71
2022/12/02 07:33:34;;;;;;;;;6.33;4.00;;;;;-1.78;83.52;99272.03;4940169;28;103626;-70
2022/12/02 07:36:01;;;;;;;;;9.33;5.67;;;;;-1.66;82.54;99279.13;4945632;28;102529;-70
2022/12/02 07:38:28;;;;;;;;;4.67;4.67;;;;;-1.70;81.97;99278.50;4944264;28;101655;-70
2022/12/02 07:41:16;;;;;;;;;4.00;4.00;;;;;-1.65;83.02;99276.38;4936252;28;109212;-70
2022/12/02 07:43:43;;;;;;;;;8.00;7.00;;;;;-1.56;82.13;99282.81;4946009;28;101967;-71
2022/12/02 07:46:11;;;;;;;;;5.67;4.67;;;;;-1.64;81.03;99279.88;4942380;28;101933;-70
2022/12/02 07:48:38;;;;;;;;;6.33;5.00;;;;;-1.66;83.53;99285.25;4935764;28;101724;-69
2022/12/02 07:51:05;;;;;;;;;7.00;5.00;;;;;-1.55;81.24;99280.06;4934909;28;103528;-69
2022/12/02 07:53:32;;;;;;;;;8.00;7.00;;;;;-1.65;81.06;99283.47;4956105;28;101780;-70
2022/12/02 07:56:00;;;;;;;;;9.00;4.67;;;;;-1.61;81.16;99284.94;4944052;28;101970;-71
2022/12/02 07:58:27;;;;;;;;;7.33;5.00;;;;;-1.71;82.08;99281.25;4956918;28;101989;-71
2022/12/02 08:01:14;;;;;;;;;9.00;8.00;;;;;-1.76;82.71;99281.59;4958115;28;109183;-71
2022/12/02 08:03:45;;;;;;;;;7.67;7.00;;;;;-1.70;82.92;99285.59;4966752;28;101697;-70
2022/12/02 08:06:12;;;;;;;;;8.67;5.00;;;;;-1.63;81.09;99285.06;4967134;28;101805;-71
2022/12/02 08:08:39;;;;;;;;;2.67;2.67;;;;;-1.58;82.46;99284.75;4968242;28;101686;-71
2022/12/02 08:11:06;;;;;;;;;7.00;4.33;;;;;-1.50;82.56;99279.75;4960070;28;103380;-71
2022/12/02 08:13:33;;;;;;;;;5.00;4.00;;;;;-1.50;82.22;99282.41;4962965;28;101766;-70
2022/12/02 08:16:00;;;;;;;;;8.33;4.33;;;;;-1.58;81.79;99284.75;4963763;28;102790;-70
2022/12/02 08:18:26;;;;;;;;;5.00;5.00;;;;;-1.63;82.15;99282.41;4951488;28;101578;-70
2022/12/02 08:20:53;;;;;;;;;7.00;5.00;;;;;-1.57;81.88;99291.72;4956339;28;103279;-70
2022/12/02 08:23:20;;;;;;;;;11.33;5.00;;;;;-1.61;81.54;99277.00;4955366;28;101965;-70
2022/12/02 08:25:47;;;;;;;;;7.33;6.33;;;;;-1.55;81.31;99295.13;4952133;28;101693;-70
2022/12/02 08:28:14;;;;;;;;;4.00;4.00;;;;;-1.51;81.20;99297.44;4967157;28;101918;-70
2022/12/02 08:30:41;;;;;;;;;4.00;2.00;;;;;-1.48;81.68;99296.38;4958427;28;103657;-71
2022/12/02 08:33:08;;;;;;;;;7.00;4.00;;;;;-1.88;80.75;99219.66;4961527;28;101623;-70
2022/12/02 08:35:38;;;;;;;;;5.67;5.67;;;;;-1.64;81.84;99290.47;4964023;28;101835;-72
2022/12/02 08:38:06;;;;;;;;;8.00;6.33;;;;;-1.58;81.42;99287.41;4967697;28;101761;-72
2022/12/02 08:40:33;;;;;;;;;9.33;5.00;;;;;-1.57;81.21;99294.38;4953544;28;103382;-69
2022/12/02 08:43:01;;;;;;;;;7.00;5.00;;;;;-1.61;81.34;99296.41;4957646;28;101778;-70
2022/12/02 08:45:29;;;;;;;;;7.67;6.33;;;;;-1.64;81.53;99293.13;4951764;28;101666;-70
2022/12/02 08:47:56;;;;;;;;;4.00;1.33;;;;;-1.62;81.01;99283.28;4953902;28;101692;-71
2022/12/02 08:50:24;;;;;;;;;4.00;4.00;;;;;-1.54;82.05;99297.69;4953404;28;103331;-71
2022/12/02 08:52:51;;;;;;;;;9.00;7.00;;;;;-1.59;82.53;99304.25;4958773;28;101808;-71
2022/12/02 08:55:24;;;;;;;;;8.00;7.00;;;;;-1.57;82.45;99302.31;4954194;28;101566;-70
2022/12/02 08:57:51;;;;;;;;;8.33;7.00;;;;;-1.62;82.23;99300.00;4966322;28;101676;-71
2022/12/02 09:00:19;;;;;;;;;13.33;8.00;;;;;-1.66;82.45;99292.38;4955695;28;103516;-72
2022/12/02 09:02:46;;;;;;;;;8.00;5.67;;;;;-1.65;82.07;99294.91;4968127;28;101960;-69
2022/12/02 09:05:14;;;;;;;;;8.00;8.00;;;;;-1.60;82.06;99297.25;4961943;28;101797;-69
2022/12/02 09:07:41;;;;;;;;;12.00;8.67;;;;;-1.67;83.40;99301.31;4962484;28;101505;-70
2022/12/02 09:10:09;;;;;;;;;5.67;5.67;;;;;-1.74;83.60;99289.41;4952651;28;103495;-70
2022/12/02 09:12:36;;;;;;;;;8.00;7.33;;;;;-1.75;83.57;99287.72;4966082;28;102062;-70
2022/12/02 09:15:04;;;;;;;;;9.00;9.00;;;;;-1.85;84.28;99298.94;4962135;28;101975;-71
2022/12/02 09:17:31;;;;;;;;;12.00;8.00;;;;;-1.83;84.63;99288.25;4960808;28;101734;-70
2022/12/02 09:19:58;;;;;;;;;11.67;8.00;;;;;-1.80;83.67;99290.69;4960070;28;103908;-70
2022/12/02 09:22:25;;;;;;;;;8.00;7.00;;;;;-1.95;85.32;99271.41;4962794;28;101987;-71
2022/12/02 09:24:52;;;;;;;;;7.67;7.00;;;;;-2.17;83.66;99234.13;4960829;28;101995;-71
2022/12/02 09:27:20;;;;;;;;;8.67;7.00;;;;;-1.75;84.93;99299.16;4965701;28;101729;-69
2022/12/02 09:29:47;;;;;;;;;7.67;7.67;;;;;-1.83;83.84;99297.06;4953931;28;103589;-70
2022/12/02 09:32:13;;;;;;;;;11.00;7.33;;;;;-1.81;84.14;99299.59;4967480;28;101884;-70
2022/12/02 09:34:40;;;;;;;;;10.00;8.00;;;;;-1.83;85.42;99294.41;4958601;28;101639;-69
2022/12/02 09:37:07;;;;;;;;;9.00;8.00;;;;;-1.85;85.90;99298.13;4971558;28;101621;-70
2022/12/02 09:39:35;;;;;;;;;7.00;5.67;;;;;-1.78;85.77;99296.72;4958022;28;103504;-69
2022/12/02 09:42:10;;;;;;;;;12.00;8.00;;;;;-1.90;85.88;99274.59;4965391;28;102037;-70
2022/12/02 09:44:38;;;;;;;;;7.33;5.00;;;;;-1.69;84.63;99297.91;4962550;28;101588;-69
2022/12/02 09:47:05;;;;;;;;;8.33;7.00;;;;;-1.71;84.69;99292.69;4963958;28;103646;-71
2022/12/02 09:49:34;;;;;;;;;11.33;8.67;;;;;-1.82;85.70;99288.16;4955939;28;103543;-70
2022/12/02 09:52:04;;;;;;;;;10.67;7.00;;;;;-1.84;85.99;99295.34;4969801;28;101675;-70
2022/12/02 09:54:32;;;;;;;;;9.33;8.00;;;;;-1.78;85.97;99295.88;4964976;28;101913;-70
2022/12/02 09:56:59;;;;;;;;;16.00;9.33;;;;;-1.83;86.27;99288.25;4970866;28;101604;-70
2022/12/02 09:59:27;;;;;;;;;14.00;9.00;;;;;-1.79;85.64;99287.09;4969235;28;103358;-70
2022/12/02 10:01:57;;;;;;;;;14.33;11.00;;;;;-1.73;86.67;99288.47;4968466;28;101834;-70
2022/12/02 10:04:25;;;;;;;;;11.00;7.67;;;;;-1.64;85.61;99275.41;4966618;28;102108;-70
2022/12/02 10:06:52;;;;;;;;;5.67;5.67;;;;;-1.49;85.26;99290.25;4968522;28;101871;-70
2022/12/02 10:09:28;;;;;;;;;5.00;4.00;;;;;-1.40;85.10;99278.13;4956666;28;103388;-70
2022/12/02 10:11:56;;;;;;;;;7.67;5.00;;;;;-1.37;84.32;99267.31;4967961;28;102180;-70
2022/12/02 10:14:23;;;;;;;;;8.00;5.67;;;;;-1.36;84.15;99267.19;4963160;28;101761;-70
2022/12/02 10:16:52;;;;;;;;;9.67;5.00;;;;;-1.53;84.51;99256.09;4965869;28;101503;-71
2022/12/02 10:19:20;;;;;;;;;13.33;7.33;;;;;-1.53;85.55;99270.19;4955661;28;103389;-71
2022/12/02 10:21:47;;;;;;;;;12.00;8.00;;;;;-1.55;84.82;99264.16;4964616;28;101887;-71
2022/12/02 10:24:37;;;;;;;;;7.00;5.00;;;;;-1.56;83.94;99266.91;4958155;28;101990;-70
2022/12/02 10:27:04;;;;;;;;;14.33;11.33;;;;;-1.67;85.16;99259.72;4964972;28;102001;-70
2022/12/02 10:29:33;;;;;;;;;16.67;11.00;;;;;-1.62;85.50;99262.06;4962477;28;103338;-70
2022/12/02 10:32:06;;;;;;;;;13.33;10.67;;;;;-1.59;85.01;99251.22;4955365;28;101869;-70
2022/12/02 10:34:35;;;;;;;;;11.00;8.00;;;;;-1.57;84.62;99246.66;4955247;28;101639;-72
2022/12/02 10:37:23;;;;;;;;;8.00;5.67;;;;;-1.49;84.85;99252.28;4963996;28;101854;-69
2022/12/02 10:40:08;;;;;;;;;11.00;9.00;;;;;-1.49;85.87;99246.97;4959065;28;108002;-72
2022/12/02 10:42:35;;;;;;;;;15.00;11.33;;;;;-1.56;85.31;99251.00;4951234;28;101939;-71
2022/12/02 10:45:21;;;;;;;;;11.00;9.67;;;;;-1.51;84.46;99240.91;4965355;28;101906;-71
2022/12/02 10:47:50;;;;;;;;;12.00;9.33;;;;;-1.68;84.88;99230.66;4963354;28;101855;-72
2022/12/02 10:50:22;;;;;;;;;14.00;11.67;;;;;-1.62;84.94;99252.28;4970759;28;103265;-71
2022/12/02 10:53:00;;;;;;;;;11.00;11.00;;;;;-1.63;84.05;99240.00;4967381;28;101750;-72
2022/12/02 10:55:27;;;;;;;;;10.67;8.33;;;;;-1.58;84.83;99242.31;4965120;28;101858;-70
2022/12/02 10:57:54;;;;;;;;;10.67;9.67;;;;;-1.60;84.20;99223.88;4951972;28;101694;-71
2022/12/02 11:00:24;;;;;;;;;12.00;8.00;;;;;-1.43;85.22;99236.75;4960237;28;103303;-70
2022/12/02 11:02:58;;;;;;;;;9.00;5.67;;;;;-1.45;84.16;99229.88;4968986;28;102019;-70
2022/12/02 11:05:31;;;;;;;;;12.33;9.67;;;;;-1.55;84.79;99231.50;4952127;28;101922;-70
2022/12/02 11:08:00;;;;;;;;;14.33;10.33;;;;;-1.56;84.97;99235.09;4970914;28;101568;-70
2022/12/02 11:10:33;;;;;;;;;11.00;11.00;;;;;-1.59;84.86;99236.16;4964349;28;103533;-71
2022/12/02 11:13:05;;;;;;;;;11.00;9.67;;;;;-1.60;84.75;99236.28;4966985;28;102235;-70
2022/12/02 11:15:40;;;;;;;;;11.67;9.33;;;;;-1.63;85.40;99236.50;4967883;28;105450;-71
2022/12/02 11:18:09;;;;;;;;;14.00;12.00;;;;;-1.70;85.42;99243.19;4952466;28;101808;-70
2022/12/02 11:20:39;;;;;;;;;14.33;11.33;;;;;-1.76;85.44;99233.03;4967674;28;103153;-72
2022/12/02 11:23:25;;;;;;;;;14.33;12.00;;;;;-1.79;85.52;99244.66;4960576;28;101852;-70
2022/12/02 11:25:56;;;;;;;;;12.67;11.00;;;;;-1.70;85.63;99243.19;4952503;28;101820;-71
2022/12/02 11:28:29;;;;;;;;;14.00;11.00;;;;;-1.70;85.75;99229.91;4965337;28;101979;-72
2022/12/02 11:31:17;;;;;;;;;12.33;8.33;;;;;-1.74;86.60;99233.75;4966442;28;103389;-71
2022/12/02 11:33:50;;;;;;;;;10.00;8.67;;;;;-1.72;84.81;99230.06;4957797;28;101963;-70
2022/12/02 11:36:23;;;;;;;;;12.00;11.00;;;;;-1.72;85.16;99234.50;4961521;28;101877;-71
2022/12/02 11:38:50;;;;;;;;;11.67;10.67;;;;;-1.60;84.96;99238.91;4966758;28;101999;-72